Time;durP1;ratioP1;P1;durP2;ratioP2;P2;SDS_P1;SDS_P2;PMS_P1;PMS_P2;Temp;Humidity;BMP_temperature;BMP_pressure;BME280_temperature;BME280_humidity;BME280_pressure;Samples;Min_cycle;Max_cycle;Signal;HPM_P1;HPM_P2
2022/06/20 00:01:38;;;;;;;3.38;2.05;;;;;;;23.47;45.36;101096.00;5051453;28;20911;-59
2022/06/20 00:04:11;;;;;;;6.00;2.80;;;;;;;23.47;45.38;101102.13;5034030;28;20483;-60
2022/06/20 00:06:41;;;;;;;3.80;2.00;;;;;;;23.47;45.96;101096.00;5034367;28;20423;-59
2022/06/20 00:09:17;;;;;;;4.97;2.10;;;;;;;23.48;45.13;101092.50;5069102;28;20917;-61
2022/06/20 00:11:49;;;;;;;4.57;2.10;;;;;;;23.48;45.58;101097.75;5052418;28;20402;-59
2022/06/20 00:14:20;;;;;;;4.07;2.10;;;;;;;23.48;45.19;101093.38;5033108;28;20495;-58
2022/06/20 00:16:51;;;;;;;3.70;2.10;;;;;;;23.48;45.91;101071.47;5050857;28;20390;-60
2022/06/20 00:19:19;;;;;;;4.22;2.25;;;;;;;23.49;45.09;101074.09;5032032;28;20394;-61
2022/06/20 00:21:48;;;;;;;4.68;2.20;;;;;;;23.48;45.41;101077.59;5034411;28;20393;-59
2022/06/20 00:24:14;;;;;;;4.20;2.20;;;;;;;23.45;45.35;101066.19;5037554;28;20401;-61
2022/06/20 00:26:39;;;;;;;3.63;2.03;;;;;;;23.48;45.66;101087.22;5052230;28;20928;-60
2022/06/20 00:29:06;;;;;;;4.73;2.10;;;;;;;23.46;45.55;101104.75;5053242;28;20903;-59
2022/06/20 00:31:32;;;;;;;3.25;2.05;;;;;;;23.47;45.59;101127.53;5050721;28;20394;-61
2022/06/20 00:33:57;;;;;;;4.10;1.97;;;;;;;23.48;45.73;101145.06;5051866;28;20993;-61
2022/06/20 00:36:25;;;;;;;3.87;1.80;;;;;;;23.47;45.80;101148.56;5053078;28;20485;-59
2022/06/20 00:38:53;;;;;;;4.10;2.10;;;;;;;23.47;44.95;101145.94;5053554;28;20401;-60
2022/06/20 00:41:22;;;;;;;4.63;1.92;;;;;;;23.48;45.92;101145.06;5028539;28;20422;-59
2022/06/20 00:43:50;;;;;;;4.38;2.10;;;;;;;23.14;45.76;101081.84;5028704;28;20395;-59
2022/06/20 00:46:35;;;;;;;3.88;1.90;;;;;;;23.47;45.83;101120.53;5036016;28;20398;-60
2022/06/20 00:49:12;;;;;;;6.85;2.08;;;;;;;23.48;45.15;101108.25;5052338;28;20743;-60
2022/06/20 00:51:48;;;;;;;5.60;2.23;;;;;;;23.46;45.02;101094.22;5067550;28;20400;-60
2022/06/20 00:54:22;;;;;;;5.28;2.10;;;;;;;23.31;45.13;101095.94;5064772;28;20408;-62
2022/06/20 00:57:06;;;;;;;3.83;2.10;;;;;;;23.48;45.01;101097.75;5052608;28;20420;-59
2022/06/20 00:59:38;;;;;;;3.72;1.83;;;;;;;23.46;45.11;101083.72;5070302;28;20427;-60
2022/06/20 01:02:08;;;;;;;4.38;2.22;;;;;;;23.48;45.65;101081.97;5049386;28;20402;-61
2022/06/20 01:04:39;;;;;;;4.95;2.17;;;;;;;23.43;45.63;101073.19;5040382;28;20975;-60
2022/06/20 01:07:09;;;;;;;4.07;1.75;;;;;;;23.32;45.70;101055.66;5049506;28;20390;-61
2022/06/20 01:09:38;;;;;;;5.18;2.80;;;;;;;23.46;44.93;101067.94;5035279;28;20390;-57
2022/06/20 01:12:05;;;;;;;3.17;1.90;;;;;;;23.43;45.24;101057.44;5032134;28;20387;-58
2022/06/20 01:14:38;;;;;;;4.03;1.92;;;;;;;23.47;45.44;101059.19;5039096;28;20398;-58
2022/06/20 01:17:36;;;;;;;3.33;1.77;;;;;;;23.46;45.54;101073.22;5036111;28;20747;-57
2022/06/20 01:20:23;;;;;;;4.10;2.10;;;;;;;23.45;45.54;101072.34;5034101;28;20405;-57
2022/06/20 01:23:09;;;;;;;3.20;1.80;;;;;;;23.46;44.75;101060.06;5052007;28;20412;-56
2022/06/20 01:26:08;;;;;;;3.65;1.83;;;;;;;23.47;45.47;101065.34;5043482;28;20403;-59
2022/06/20 01:28:38;;;;;;;3.03;1.90;;;;;;;23.46;44.88;101078.47;5040506;28;20395;-58
2022/06/20 01:31:03;;;;;;;5.10;1.80;;;;;;;23.46;45.16;101068.84;5018976;28;20398;-57
2022/06/20 01:33:30;;;;;;;3.27;1.87;;;;;;;23.47;45.16;101064.44;5049175;28;20808;-59
2022/06/20 01:38:40;;;;;;;4.65;2.00;;;;;;;23.47;44.92;101069.69;5066046;28;20396;-58
2022/06/20 01:43:50;;;;;;;2.87;1.77;;;;;;;23.47;45.10;101061.81;5048015;28;20827;-58
2022/06/20 01:46:15;;;;;;;3.00;1.77;;;;;;;23.45;44.70;101060.94;5039565;28;20394;-58
2022/06/20 01:48:45;;;;;;;3.97;2.10;;;;;;;23.45;45.56;101060.94;5023015;28;20832;-60
2022/06/20 01:51:25;;;;;;;3.28;1.88;;;;;;;23.44;44.64;101048.66;5011830;28;20406;-58
2022/06/20 01:53:52;;;;;;;3.47;1.92;;;;;;;23.46;45.14;101057.44;5028293;28;20738;-59
2022/06/20 01:56:18;;;;;;;4.57;2.00;;;;;;;23.47;45.08;101059.19;5035401;28;20406;-59
2022/06/20 01:58:46;;;;;;;3.90;1.67;;;;;;;23.47;45.22;101069.69;5040108;28;20400;-58
2022/06/20 02:01:13;;;;;;;4.70;2.17;;;;;;;23.47;44.45;101069.69;5061438;28;20394;-58
2022/06/20 02:03:40;;;;;;;3.13;1.70;;;;;;;23.46;44.75;101067.94;5035990;28;20483;-59
2022/06/20 02:06:08;;;;;;;5.18;2.00;;;;;;;23.47;45.00;101059.19;5014619;28;20437;-59
2022/06/20 02:08:35;;;;;;;3.63;1.80;;;;;;;23.43;44.85;101052.16;5051939;28;20400;-58
2022/06/20 02:11:07;;;;;;;3.40;1.70;;;;;;;23.47;44.79;101069.69;5040224;28;20427;-59
2022/06/20 02:13:35;;;;;;;3.70;1.88;;;;;;;23.46;45.26;101063.59;5047038;28;20394;-58
2022/06/20 02:16:04;;;;;;;4.43;1.97;;;;;;;23.46;44.25;101057.44;5034130;28;20517;-58
2022/06/20 02:18:32;;;;;;;3.30;1.50;;;;;;;23.40;44.98;101042.53;5043503;28;20815;-60
2022/06/20 02:21:00;;;;;;;4.30;2.15;;;;;;;23.42;44.91;101045.16;5050579;28;20406;-59
2022/06/20 02:23:29;;;;;;;2.55;1.60;;;;;;;23.45;44.90;101055.69;5040046;28;20465;-61
2022/06/20 02:26:00;;;;;;;4.53;1.80;;;;;;;23.46;44.19;101060.06;5020157;28;20395;-59
2022/06/20 02:28:44;;;;;;;3.80;1.75;;;;;;;23.47;44.38;101056.56;5037848;28;20409;-59
2022/06/20 02:31:10;;;;;;;3.60;1.70;;;;;;;23.45;44.68;101056.56;5044360;28;20403;-59
2022/06/20 02:33:39;;;;;;;4.07;1.90;;;;;;;23.46;44.86;101065.31;5038069;28;20416;-59
2022/06/20 02:36:09;;;;;;;4.38;1.80;;;;;;;23.47;45.14;101072.34;5033039;28;20409;-62
2022/06/20 02:38:38;;;;;;;4.28;2.20;;;;;;;23.46;44.88;101068.84;5063233;28;20513;-59
2022/06/20 02:41:12;;;;;;;4.60;1.70;;;;;;;23.45;45.08;101066.19;5032607;28;20622;-60
2022/06/20 02:43:47;;;;;;;4.70;1.70;;;;;;;23.47;44.21;101064.44;5034716;28;20484;-59
2022/06/20 02:46:26;;;;;;;2.97;1.70;;;;;;;23.48;43.94;101071.47;5060787;28;20950;-60
2022/06/20 02:49:09;;;;;;;3.77;1.90;;;;;;;23.48;44.39;101074.09;5035365;28;21001;-59
2022/06/20 02:51:42;;;;;;;4.72;1.90;;;;;;;23.48;44.68;101060.94;5039482;28;20398;-60
2022/06/20 02:54:24;;;;;;;3.08;1.65;;;;;;;23.48;44.99;101050.44;5035203;28;20398;-59
2022/06/20 02:57:19;;;;;;;3.00;1.77;;;;;;;23.46;43.98;101052.19;5017342;28;20402;-59
2022/06/20 03:00:11;;;;;;;3.03;1.70;;;;;;;23.46;44.44;101041.66;5051896;28;20401;-59
2022/06/20 03:02:54;;;;;;;3.67;1.85;;;;;;;23.46;44.83;101053.06;5037611;28;20968;-60
2022/06/20 03:06:07;;;;;;;4.50;2.00;;;;;;;23.47;44.18;101061.81;5027692;28;20482;-60
2022/06/20 03:08:33;;;;;;;4.30;1.80;;;;;;;23.47;44.74;101085.47;5037468;28;20390;-60
2022/06/20 03:11:11;;;;;;;4.22;1.90;;;;;;;23.46;44.25;101086.34;5053335;28;20394;-60
2022/06/20 03:13:37;;;;;;;5.60;1.95;;;;;;;23.45;44.10;101076.72;5037334;28;20403;-59
2022/06/20 03:16:03;;;;;;;3.97;1.90;;;;;;;23.36;44.02;101045.16;5054823;28;20400;-60
2022/06/20 03:18:29;;;;;;;4.40;2.00;;;;;;;23.44;44.17;101064.44;5045835;28;20444;-60
2022/06/20 03:20:55;;;;;;;4.30;1.80;;;;;;;23.44;44.66;101069.69;5054485;28;20410;-60
2022/06/20 03:23:30;;;;;;;3.70;1.63;;;;;;;23.44;44.71;101059.19;5063926;28;20732;-59
2022/06/20 03:25:56;;;;;;;2.67;1.70;;;;;;;23.46;43.94;101062.69;5050810;28;20445;-62
2022/06/20 03:28:23;;;;;;;4.03;1.67;;;;;;;23.45;44.34;101068.81;5032245;28;20887;-60
2022/06/20 03:30:49;;;;;;;3.72;1.70;;;;;;;23.41;44.80;101064.44;5053795;28;20414;-60
2022/06/20 03:33:16;;;;;;;4.28;1.80;;;;;;;23.46;44.52;101073.22;5054639;28;20420;-61
2022/06/20 03:35:45;;;;;;;3.25;1.77;;;;;;;23.41;44.11;101069.69;5049195;28;20447;-61
2022/06/20 03:38:12;;;;;;;2.45;1.60;;;;;;;23.47;44.08;101080.22;5037714;28;20441;-60
2022/06/20 03:40:39;;;;;;;4.18;1.90;;;;;;;23.47;44.64;101080.22;5055079;28;20459;-58
2022/06/20 03:43:06;;;;;;;3.03;1.60;;;;;;;23.31;44.47;101048.63;5036039;28;20404;-57
2022/06/20 03:45:33;;;;;;;3.55;1.60;;;;;;;23.48;44.26;101071.47;5046578;23;20418;-57
2022/06/20 03:48:05;;;;;;;3.65;1.67;;;;;;;23.45;43.91;101071.44;4995622;28;20879;-54
2022/06/20 03:50:36;;;;;;;3.63;1.80;;;;;;;23.48;43.89;101079.34;4995316;28;20847;-58
2022/06/20 03:53:06;;;;;;;4.35;2.05;;;;;;;23.47;43.96;101074.97;4996149;28;20396;-58
2022/06/20 03:55:36;;;;;;;3.90;1.80;;;;;;;23.47;44.24;101085.47;4997406;28;20499;-58
2022/06/20 03:58:18;;;;;;;4.03;1.80;;;;;;;23.48;44.72;101076.72;5034174;28;20469;-58
2022/06/20 04:00:48;;;;;;;3.17;1.70;;;;;;;23.48;44.39;101074.09;5024981;28;20414;-54
2022/06/20 04:03:24;;;;;;;2.90;1.73;;;;;;;23.46;43.71;101082.00;4979891;28;20390;-57
2022/06/20 04:06:04;;;;;;;3.07;1.73;;;;;;;23.47;43.95;101080.22;4980796;28;20486;-56
2022/06/20 04:11:24;;;;;;;4.22;1.95;;;;;;;23.47;44.38;101069.69;5018552;28;20449;-57
2022/06/20 04:13:58;;;;;;;3.63;1.67;;;;;;;23.50;44.24;101064.44;4982427;28;20759;-58
2022/06/20 04:16:29;;;;;;;3.28;1.70;;;;;;;23.51;44.06;101066.22;4988773;28;20426;-59
2022/06/20 04:19:07;;;;;;;3.83;1.80;;;;;;;23.53;43.33;101074.13;4990018;28;20401;-55
2022/06/20 04:21:52;;;;;;;4.20;1.75;;;;;;;23.56;42.74;101072.34;5015164;28;20480;-60
2022/06/20 04:24:31;;;;;;;4.78;1.80;;;;;;;23.59;43.56;101069.72;4993405;28;20800;-59
2022/06/20 04:27:18;;;;;;;5.65;1.98;;;;;;;23.59;43.99;101068.88;4991251;28;20412;-59
2022/06/20 04:29:44;;;;;;;6.97;2.17;;;;;;;23.60;43.52;101071.47;5007998;28;20797;-59
2022/06/20 04:32:20;;;;;;;6.75;2.20;;;;;;;23.60;42.72;101079.38;4994679;28;20818;-61
2022/06/20 04:34:58;;;;;;;9.75;2.40;;;;;;;23.60;43.19;101074.13;4974000;28;20489;-60
2022/06/20 04:37:27;;;;;;;7.88;2.35;;;;;;;23.61;42.71;101067.97;5007060;28;20892;-59
2022/06/20 04:40:00;;;;;;;6.95;1.92;;;;;;;23.60;43.95;101071.47;5009438;28;20756;-59
2022/06/20 04:42:31;;;;;;;5.28;2.05;;;;;;;23.61;43.84;101072.38;4991100;28;20410;-59
2022/06/20 04:45:00;;;;;;;4.63;2.00;;;;;;;23.61;43.56;101067.97;5007095;28;20406;-57
2022/06/20 04:47:49;;;;;;;5.88;2.15;;;;;;;23.64;43.42;101062.72;4992972;28;20403;-56
2022/06/20 04:50:32;;;;;;;5.93;2.40;;;;;;;23.66;43.24;101067.09;5027242;28;20427;-56
2022/06/20 04:53:05;;;;;;;7.28;2.90;;;;;;;23.66;43.63;101060.13;4977564;28;20815;-57
2022/06/20 04:55:32;;;;;;;8.03;2.23;;;;;;;23.68;42.97;101068.00;4994332;28;20399;-56
2022/06/20 04:58:08;;;;;;;10.63;2.70;;;;;;;23.66;44.33;101070.63;4977456;28;20891;-56
2022/06/20 05:00:42;;;;;;;7.47;2.50;;;;;;;23.67;44.23;101066.22;5009503;28;20399;-57
2022/06/20 05:03:11;;;;;;;6.15;2.15;;;;;;;23.66;43.26;101059.22;4993199;28;20449;-54
2022/06/20 05:05:44;;;;;;;7.37;2.63;;;;;;;23.64;44.03;101062.72;4974686;28;20410;-56
2022/06/20 05:08:11;;;;;;;5.03;2.20;;;;;;;23.62;43.80;101053.97;5020597;28;20482;-56
2022/06/20 05:10:45;;;;;;;6.97;2.30;;;;;;;23.62;44.18;101059.22;4992875;28;20426;-55
2022/06/20 05:13:15;;;;;;;6.20;2.03;;;;;;;23.62;44.34;101046.06;4994112;28;20402;-57
2022/06/20 05:15:46;;;;;;;5.82;2.35;;;;;;;23.60;44.44;101045.19;4997787;28;20413;-56
2022/06/20 05:18:30;;;;;;;6.32;2.60;;;;;;;23.60;43.77;101045.19;4994561;28;20403;-53
2022/06/20 05:21:02;;;;;;;5.32;2.00;;;;;;;23.57;44.02;101037.31;4993833;28;20502;-56
2022/06/20 05:23:35;;;;;;;5.55;2.00;;;;;;;23.60;44.08;101045.19;4998013;28;20395;-56
2022/06/20 05:26:02;;;;;;;5.78;2.10;;;;;;;23.59;44.18;101032.06;4993539;28;20387;-57
2022/06/20 05:28:28;;;;;;;5.70;2.20;;;;;;;23.61;44.53;101025.91;5011264;28;20859;-56
2022/06/20 05:30:53;;;;;;;5.72;2.00;;;;;;;23.58;44.51;101025.91;4997988;28;20854;-55
2022/06/20 05:33:56;;;;;;;6.80;2.10;;;;;;;23.60;43.96;101024.16;5013638;28;20417;-53
2022/06/20 05:36:28;;;;;;;4.55;1.90;;;;;;;23.59;44.06;101014.53;4994040;28;20387;-57
2022/06/20 05:39:11;;;;;;;5.33;2.13;;;;;;;23.61;44.54;101015.41;4979298;28;20508;-56
2022/06/20 05:41:39;;;;;;;5.78;2.15;;;;;;;23.60;43.90;101013.66;4997491;28;20487;-54
2022/06/20 05:44:07;;;;;;;5.05;2.08;;;;;;;23.59;43.60;101011.88;5009173;28;20989;-53
2022/06/20 05:50:29;;;;;;;5.47;1.98;;;;;;;23.60;44.78;101008.38;5060736;23;20515;-54
2022/06/20 05:52:58;;;;;;;6.65;2.20;;;;;;;23.54;44.16;100991.75;5026542;28;20490;-54
2022/06/20 05:55:27;;;;;;;15.27;3.53;;;;;;;23.58;43.94;101004.00;5012628;28;20478;-52
2022/06/20 05:57:56;;;;;;;29.45;6.32;;;;;;;23.58;43.96;101004.88;5031401;28;20783;-56
2022/06/20 06:00:25;;;;;;;19.45;4.82;;;;;;;23.60;43.98;100992.59;5038827;28;20439;-55
2022/06/20 06:05:23;;;;;;;30.88;6.32;;;;;;;23.54;44.55;100992.59;5034414;22;20587;-59
2022/06/20 06:08:14;;;;;;;23.63;6.00;;;;;;;23.60;43.96;100992.59;5031789;28;20388;-59
2022/06/20 06:10:51;;;;;;;22.42;6.95;;;;;;;23.61;44.77;100994.38;5034178;28;20415;-58
2022/06/20 06:13:36;;;;;;;23.70;5.65;;;;;;;23.62;44.79;100990.00;4996960;28;20397;-59
2022/06/20 06:19:04;;;;;;;18.85;4.82;;;;;;;23.64;44.40;100993.50;5030555;28;20392;-59
2022/06/20 06:21:29;;;;;;;17.13;5.30;;;;;;;23.62;43.81;100996.13;5030589;28;20431;-58
2022/06/20 06:23:56;;;;;;;20.80;5.43;;;;;;;23.48;44.19;100966.31;5009730;28;20887;-62
2022/06/20 06:26:21;;;;;;;18.25;4.70;;;;;;;23.62;44.62;100998.75;5003467;28;20395;-59
2022/06/20 06:28:48;;;;;;;17.60;4.90;;;;;;;23.50;44.23;100977.72;5036047;28;20420;-61
2022/06/20 06:31:28;;;;;;;17.52;4.53;;;;;;;23.63;43.92;100989.13;5019702;28;20411;-60
2022/06/20 06:33:57;;;;;;;13.73;4.22;;;;;;;23.63;44.66;100987.34;5002285;28;20401;-61
2022/06/20 06:36:28;;;;;;;18.10;4.85;;;;;;;23.63;43.82;100989.97;5002963;28;20385;-60
2022/06/20 06:39:01;;;;;;;17.58;4.50;;;;;;;23.45;44.31;100966.31;5002163;28;20480;-58
2022/06/20 06:41:34;;;;;;;15.00;4.32;;;;;;;23.44;43.96;100964.56;5019550;28;20769;-59
2022/06/20 06:44:00;;;;;;;12.60;4.07;;;;;;;23.64;43.73;100999.63;5002633;28;20404;-61
2022/06/20 06:46:31;;;;;;;13.25;4.13;;;;;;;23.63;43.55;101008.38;5002500;28;20393;-59
2022/06/20 06:49:14;;;;;;;11.93;3.90;;;;;;;23.62;43.54;101009.25;5002208;28;20412;-59
2022/06/20 06:51:51;;;;;;;12.02;4.38;;;;;;;23.66;43.69;101012.78;5037030;28;20389;-61
2022/06/20 06:54:40;;;;;;;13.88;4.30;;;;;;;23.67;42.87;101024.16;5036885;28;20381;-61
2022/06/20 06:57:12;;;;;;;11.63;3.47;;;;;;;23.67;43.61;101018.91;5027979;28;20399;-62
2022/06/20 06:59:43;;;;;;;12.20;3.90;;;;;;;23.55;43.95;100999.63;5014070;28;20936;-59
2022/06/20 07:02:21;;;;;;;11.95;3.63;;;;;;;23.61;43.27;101007.50;5012265;28;20405;-59
2022/06/20 07:05:04;;;;;;;9.93;3.55;;;;;;;23.63;43.21;101008.38;5002876;28;20789;-59
2022/06/20 07:07:42;;;;;;;12.45;3.80;;;;;;;23.62;43.06;101017.16;5019191;28;20470;-61
2022/06/20 07:10:18;;;;;;;11.82;3.60;;;;;;;23.64;43.29;101019.78;5015849;28;20401;-59
2022/06/20 07:12:48;;;;;;;9.27;3.35;;;;;;;23.63;42.52;101013.66;5002811;28;20929;-59
2022/06/20 07:15:19;;;;;;;8.50;3.23;;;;;;;23.63;43.34;101002.28;5017153;28;20908;-60
2022/06/20 07:17:51;;;;;;;8.63;3.40;;;;;;;23.66;43.13;101010.16;5018536;28;20488;-60
2022/06/20 07:20:20;;;;;;;9.47;3.23;;;;;;;23.62;42.54;101001.38;5001858;28;20497;-60
2022/06/20 07:22:47;;;;;;;7.30;3.22;;;;;;;23.60;42.85;100997.88;5003308;28;20396;-59
2022/06/20 07:25:18;;;;;;;7.95;3.33;;;;;;;23.67;42.57;101003.13;5033978;28;20405;-60
2022/06/20 07:27:51;;;;;;;9.65;3.33;;;;;;;23.64;43.07;101010.13;5017131;28;20463;-59
2022/06/20 07:30:23;;;;;;;8.40;2.85;;;;;;;23.66;42.53;101006.63;5017764;28;20494;-60
2022/06/20 07:32:51;;;;;;;10.07;3.00;;;;;;;23.64;42.39;101007.50;5002343;28;20397;-60
2022/06/20 07:35:23;;;;;;;7.75;2.92;;;;;;;23.62;42.70;101014.53;4998951;28;20409;-59
2022/06/20 07:38:00;;;;;;;6.63;2.70;;;;;;;23.66;43.05;101011.91;5015481;28;20404;-60
2022/06/20 07:40:56;;;;;;;10.82;3.20;;;;;;;23.62;43.10;101011.88;4997417;28;20399;-59
2022/06/20 07:43:30;;;;;;;9.02;2.85;;;;;;;23.63;43.21;101024.16;5026391;28;20860;-59
2022/06/20 07:46:01;;;;;;;6.05;2.50;;;;;;;23.65;42.25;101037.31;4999417;28;20389;-58
2022/06/20 07:48:36;;;;;;;8.35;3.03;;;;;;;23.59;43.16;101035.56;5016474;28;20421;-59
2022/06/20 07:51:14;;;;;;;8.33;3.20;;;;;;;23.67;43.11;101050.47;5015570;28;20552;-59
2022/06/20 07:53:39;;;;;;;9.43;2.83;;;;;;;23.67;42.91;101055.72;5032630;28;20419;-60
2022/06/20 07:56:13;;;;;;;8.27;2.70;;;;;;;23.63;42.38;101050.44;5032725;28;20869;-58
2022/06/20 07:58:42;;;;;;;7.32;2.60;;;;;;;23.69;42.25;101059.22;5014117;28;20373;-59
2022/06/20 08:02:03;;;;;;;8.48;3.17;;;;;;;23.70;42.05;101055.72;5018421;28;20404;-59
2022/06/20 08:04:49;;;;;;;5.80;2.92;;;;;;;23.67;41.92;101055.72;4984198;28;20389;-59
2022/06/20 08:07:44;;;;;;;7.40;2.60;;;;;;;23.68;41.33;101052.22;4993488;28;20444;-58
2022/06/20 08:10:34;;;;;;;7.35;2.90;;;;;;;23.68;41.78;101041.69;5013271;28;20390;-59
2022/06/20 08:13:46;;;;;;;7.40;2.45;;;;;;;23.68;41.38;101041.69;5014372;28;20408;-62
2022/06/20 08:20:11;;;;;;;7.28;2.22;;;;;;;23.66;41.78;101041.72;5029036;28;20901;-59
2022/06/20 08:22:53;;;;;;;5.37;2.20;;;;;;;23.66;41.85;101044.34;4995741;28;20405;-59
2022/06/20 08:25:24;;;;;;;4.90;2.10;;;;;;;23.64;41.97;101039.06;5013718;28;20758;-59
2022/06/20 08:28:14;;;;;;;6.00;2.50;;;;;;;23.64;41.65;101041.69;4997397;28;20397;-61
2022/06/20 08:30:57;;;;;;;7.22;2.30;;;;;;;23.67;42.10;101055.72;4996789;28;20412;-59
2022/06/20 08:33:39;;;;;;;6.90;2.50;;;;;;;23.68;41.87;101041.69;4998892;28;20410;-61
2022/06/20 08:37:00;;;;;;;6.28;2.40;;;;;;;23.68;41.59;101031.19;4997059;28;20412;-60
2022/06/20 08:39:34;;;;;;;4.38;2.55;;;;;;;23.68;41.03;101018.03;4954391;28;20401;-61
2022/06/20 08:42:08;;;;;;;6.32;2.53;;;;;;;23.66;41.46;101018.03;5014091;28;20935;-61
2022/06/20 08:45:02;;;;;;;6.65;2.58;;;;;;;23.69;41.29;101019.78;5028595;28;20758;-60
2022/06/20 08:47:39;;;;;;;6.65;2.35;;;;;;;23.71;41.93;101028.56;5010686;28;20393;-58
2022/06/20 08:50:25;;;;;;;7.17;2.17;;;;;;;23.71;41.35;101033.81;5014446;28;20948;-60
2022/06/20 08:53:23;;;;;;;5.47;2.58;;;;;;;23.68;41.65;101032.06;5012440;28;20512;-60
2022/06/20 08:56:39;;;;;;;6.05;2.10;;;;;;;23.70;40.97;101029.44;5012197;28;20463;-60
2022/06/20 08:59:20;;;;;;;4.60;2.30;;;;;;;23.68;40.74;101025.91;5006604;28;20733;-59
2022/06/20 09:01:52;;;;;;;8.57;2.50;;;;;;;23.70;40.41;101029.44;5016740;28;20457;-60
2022/06/20 09:04:37;;;;;;;5.65;2.25;;;;;;;23.69;40.98;101038.19;5014033;28;20397;-62
2022/06/20 09:07:10;;;;;;;5.40;2.13;;;;;;;23.67;41.22;101034.69;5030400;28;20869;-59
2022/06/20 09:09:42;;;;;;;7.20;2.60;;;;;;;23.67;40.54;101034.69;5012088;28;20442;-58
2022/06/20 09:12:50;;;;;;;5.63;2.40;;;;;;;23.67;40.73;101039.94;5006885;28;20447;-59
2022/06/20 09:16:11;;;;;;;6.60;2.45;;;;;;;23.64;40.93;101033.81;4994739;28;20833;-57
2022/06/20 09:18:44;;;;;;;5.60;2.20;;;;;;;23.67;40.35;101039.94;4980306;28;20730;-58
2022/06/20 09:21:49;;;;;;;5.38;2.35;;;;;;;23.69;40.91;101032.94;5007428;28;20472;-59
2022/06/20 09:24:27;;;;;;;5.68;2.20;;;;;;;23.71;40.80;101041.69;4991437;28;20881;-58
2022/06/20 09:27:04;;;;;;;5.13;2.00;;;;;;;23.70;40.17;101037.31;5013831;28;20394;-58
2022/06/20 09:30:05;;;;;;;5.07;2.15;;;;;;;23.70;41.05;101029.44;5031421;28;20404;-59
2022/06/20 09:32:55;;;;;;;6.43;2.53;;;;;;;23.70;40.35;101034.69;4999290;28;20402;-59
2022/06/20 09:35:42;;;;;;;5.55;2.30;;;;;;;23.69;40.86;101022.41;4997023;28;20385;-59
2022/06/20 09:38:37;;;;;;;4.22;2.00;;;;;;;23.61;40.88;101004.03;5024731;28;20389;-60
2022/06/20 09:41:38;;;;;;;4.85;2.22;;;;;;;23.70;41.04;101008.38;5005570;28;20397;-58
2022/06/20 09:44:33;;;;;;;6.45;2.42;;;;;;;23.69;40.52;101015.41;4983812;28;20397;-59
2022/06/20 09:47:20;;;;;;;5.63;2.35;;;;;;;23.55;40.79;100983.84;4997271;28;20957;-58
2022/06/20 09:50:04;;;;;;;3.85;2.20;;;;;;;23.70;40.18;101003.13;5012321;28;20834;-60
2022/06/20 09:52:52;;;;;;;4.40;2.20;;;;;;;23.73;40.72;101003.13;4997095;28;20389;-59
2022/06/20 09:55:53;;;;;;;4.45;2.05;;;;;;;23.73;40.51;101013.66;5012325;28;20400;-59
2022/06/20 09:59:04;;;;;;;4.27;2.00;;;;;;;23.73;40.10;101008.38;5007898;28;20914;-59
2022/06/20 10:02:00;;;;;;;3.95;2.05;;;;;;;23.74;40.97;101007.50;4972373;28;20397;-59
2022/06/20 10:04:50;;;;;;;4.07;2.08;;;;;;;23.75;40.83;101006.63;4998916;28;20421;-57
2022/06/20 10:07:28;;;;;;;4.18;2.33;;;;;;;23.74;40.53;101005.78;5007164;28;20459;-58
2022/06/20 10:10:24;;;;;;;6.00;2.53;;;;;;;23.71;39.73;100999.63;4996585;28;20443;-59
2022/06/20 10:13:02;;;;;;;5.93;2.20;;;;;;;23.71;40.13;100991.75;4996539;28;20821;-59
2022/06/20 10:15:47;;;;;;;4.68;2.30;;;;;;;23.69;40.90;100985.59;4997373;28;20461;-60
2022/06/20 10:18:20;;;;;;;5.13;2.20;;;;;;;23.75;40.46;101001.38;4995165;28;20405;-61
2022/06/20 10:20:52;;;;;;;3.40;1.97;;;;;;;23.62;39.99;100954.06;5012559;28;20426;-60
2022/06/20 10:23:39;;;;;;;4.43;1.90;;;;;;;23.76;39.71;101003.13;4996918;28;20439;-58
2022/06/20 10:26:30;;;;;;;5.38;2.30;;;;;;;23.77;39.80;100999.63;5029249;28;20397;-58
2022/06/20 10:29:20;;;;;;;4.10;2.20;;;;;;;23.77;40.13;100989.09;5012915;28;20467;-58
2022/06/20 10:32:00;;;;;;;4.18;2.15;;;;;;;23.78;39.46;100996.13;4997368;28;20477;-58
2022/06/20 10:34:44;;;;;;;3.65;2.10;;;;;;;23.77;39.64;100999.63;5010021;28;20401;-57
2022/06/20 10:37:19;;;;;;;4.45;2.10;;;;;;;23.78;39.49;101001.38;5010537;28;20388;-58
2022/06/20 10:40:11;;;;;;;5.32;2.20;;;;;;;23.79;40.17;101008.38;5025893;28;20432;-58
2022/06/20 10:43:32;;;;;;;3.30;1.90;;;;;;;23.79;39.69;101011.03;4997623;28;20398;-61
2022/06/20 10:46:10;;;;;;;4.95;2.35;;;;;;;23.79;39.08;101008.38;4952404;28;20434;-59
2022/06/20 10:48:40;;;;;;;4.55;2.20;;;;;;;23.79;39.04;101016.28;5012525;28;20399;-59
2022/06/20 10:51:50;;;;;;;4.80;2.33;;;;;;;23.80;39.75;101004.88;5006904;28;20908;-59
2022/06/20 10:54:44;;;;;;;4.40;2.20;;;;;;;23.81;38.96;101014.53;4980263;28;20393;-58
2022/06/20 10:57:23;;;;;;;4.30;1.90;;;;;;;23.81;39.15;101011.91;5005921;28;20388;-60
2022/06/20 11:00:00;;;;;;;4.95;2.05;;;;;;;23.81;38.85;101014.53;5012684;28;20413;-59
2022/06/20 11:02:50;;;;;;;5.55;2.10;;;;;;;23.82;39.00;101029.44;5025620;28;20381;-57
2022/06/20 11:05:31;;;;;;;4.50;2.38;;;;;;;23.81;39.51;101013.66;5009880;28;20951;-59
2022/06/20 11:08:16;;;;;;;4.78;2.30;;;;;;;23.82;38.53;101018.91;5012786;28;20455;-58
2022/06/20 11:10:58;;;;;;;5.00;2.20;;;;;;;23.82;39.16;101024.16;4992508;28;20465;-60
2022/06/20 11:14:01;;;;;;;;;;;;;;;;;;;;;
2022/06/20 11:16:40;;;;;;;4.32;2.00;;;;;;;23.81;38.41;101035.56;4989932;28;20409;-58
2022/06/20 11:19:15;;;;;;;3.92;2.50;;;;;;;23.81;38.41;101027.69;4992431;28;20397;-58
2022/06/20 11:22:00;;;;;;;3.53;1.80;;;;;;;23.81;38.05;101022.41;5015059;28;20401;-59
2022/06/20 11:24:51;;;;;;;5.18;2.10;;;;;;;23.81;38.21;101032.06;4998711;28;20470;-62
2022/06/20 11:27:54;;;;;;;3.55;2.10;;;;;;;23.81;38.05;101032.94;5015377;28;20492;-57
2022/06/20 11:30:37;;;;;;;4.57;2.40;;;;;;;23.83;38.62;101025.94;5025539;28;20397;-59
2022/06/20 11:34:03;;;;;;;4.60;2.00;;;;;;;23.82;38.90;101032.06;4998894;28;20412;-58
2022/06/20 11:36:51;;;;;;;4.65;2.40;;;;;;;23.84;38.42;101021.56;5011957;28;20407;-59
2022/06/20 11:39:44;;;;;;;4.70;2.30;;;;;;;23.85;38.00;101024.16;5008985;28;20433;-58
2022/06/20 11:42:24;;;;;;;4.40;2.40;;;;;;;23.86;38.35;101031.22;5010774;28;20723;-59
2022/06/20 11:45:34;;;;;;;4.47;2.00;;;;;;;23.87;38.83;101030.34;4999013;28;20546;-61
2022/06/20 11:48:39;;;;;;;5.68;2.20;;;;;;;23.87;38.76;101027.72;5000306;28;20793;-60
2022/06/20 11:51:40;;;;;;;4.50;2.00;;;;;;;23.88;38.38;101034.72;4997397;28;20913;-60
2022/06/20 11:54:39;;;;;;;4.00;2.00;;;;;;;23.84;37.91;101022.41;5015752;28;21013;-59
2022/06/20 11:57:11;;;;;;;3.75;1.92;;;;;;;23.71;37.80;100997.00;4976835;28;20459;-59
2022/06/20 11:59:54;;;;;;;4.10;2.00;;;;;;;23.86;37.81;101025.97;5012302;28;20456;-60
2022/06/20 12:02:42;;;;;;;5.13;2.05;;;;;;;23.87;38.20;101004.03;4990682;28;20421;-60
2022/06/20 12:05:17;;;;;;;3.65;1.70;;;;;;;23.89;37.68;101015.44;5069725;23;20753;-61
2022/06/20 12:08:20;;;;;;;3.20;1.90;;;;;;;23.88;38.26;101008.41;5048366;28;20396;-61
2022/06/20 12:10:55;;;;;;;3.80;1.98;;;;;;;23.91;37.90;101018.94;5044533;28;20480;-61
2022/06/20 12:13:45;;;;;;;3.50;1.80;;;;;;;23.92;38.05;101010.16;5027764;28;20372;-61
2022/06/20 12:16:21;;;;;;;4.22;2.00;;;;;;;23.90;37.77;101011.94;5033483;28;20422;-62
2022/06/20 12:24:45;;;;;;;3.78;1.80;;;;;;;23.89;37.32;101017.16;5044432;28;20419;-64
2022/06/20 12:27:13;;;;;;;3.90;1.70;;;;;;;23.70;37.28;100984.72;5023091;28;20406;-62
2022/06/20 12:29:43;;;;;;;3.63;1.70;;;;;;;23.91;38.19;101023.31;4990433;28;20899;-63
2022/06/20 12:32:20;;;;;;;2.63;1.60;;;;;;;23.86;37.48;101014.53;5017881;28;20453;-63
2022/06/20 12:35:14;;;;;;;4.55;1.80;;;;;;;23.89;37.43;101015.44;5010302;28;20398;-62
2022/06/20 12:37:39;;;;;;;3.45;1.60;;;;;;;23.88;37.51;101013.69;5008535;28;20416;-61
2022/06/20 12:40:10;;;;;;;4.43;1.90;;;;;;;23.72;37.48;100985.59;5024871;28;20399;-61
2022/06/20 12:42:53;;;;;;;4.97;2.00;;;;;;;23.87;37.33;101011.94;5048435;28;20379;-61
2022/06/20 12:45:34;;;;;;;3.55;1.98;;;;;;;23.88;37.79;101013.69;5022967;28;20434;-61